createdAt,value
2022-09-09T00:02:22.467Z,10.90
2022-09-09T00:07:44.666Z,11.90
2022-09-09T00:10:34.637Z,11.50
2022-09-09T00:13:02.847Z,10.80
2022-09-09T00:15:54.547Z,11.70
2022-09-09T00:18:30.545Z,12.60
2022-09-09T00:21:13.326Z,12.60
2022-09-09T00:23:50.846Z,13.50
2022-09-09T00:26:39.461Z,13.20
2022-09-09T00:29:34.208Z,14.20
2022-09-09T00:32:14.180Z,13.90
2022-09-09T00:35:17.242Z,13.50
2022-09-09T00:37:50.133Z,13.20
2022-09-09T00:40:36.746Z,13.70
2022-09-09T00:43:24.294Z,13.70
2022-09-09T00:46:10.848Z,12.10
2022-09-09T00:49:04.135Z,13.60
2022-09-09T00:51:48.046Z,13.20
2022-09-09T00:54:47.775Z,12.20
2022-09-09T00:57:30.660Z,11.90
2022-09-09T01:00:25.407Z,10.60
2022-09-09T01:03:26.171Z,10.50
2022-09-09T01:09:18.772Z,9.70
2022-09-09T01:12:07.421Z,10.10
2022-09-09T01:14:35.642Z,10.90
2022-09-09T01:17:21.236Z,11.50
2022-09-09T01:20:31.498Z,11.30
2022-09-09T01:23:33.514Z,11.10
2022-09-09T01:26:36.026Z,10.80
2022-09-09T01:29:14.685Z,11.80
2022-09-09T01:32:24.523Z,11.10
2022-09-09T01:34:53.478Z,12.60
2022-09-09T01:37:22.404Z,11.40
2022-09-09T01:39:50.810Z,11.80
2022-09-09T01:42:20.284Z,11.60
2022-09-09T01:44:48.930Z,12.00
2022-09-09T01:47:18.384Z,12.20
2022-09-09T01:50:15.586Z,12.20
2022-09-09T01:52:48.327Z,12.70
2022-09-09T01:55:22.638Z,12.50
2022-09-09T01:57:53.545Z,13.70
2022-09-09T02:00:22.109Z,14.80
2022-09-09T02:03:10.573Z,14.50
2022-09-09T02:05:55.782Z,14.60
2022-09-09T02:11:20.568Z,14.80
2022-09-09T02:17:49.987Z,13.00
2022-09-09T02:20:20.881Z,13.60
2022-09-09T02:22:58.757Z,14.70
2022-09-09T02:25:33.420Z,13.50
2022-09-09T02:28:11.500Z,10.20
2022-09-09T02:30:42.680Z,10.20
2022-09-09T02:33:14.200Z,10.00
2022-09-09T02:35:47.982Z,8.70
2022-09-09T02:38:20.251Z,9.40
2022-09-09T02:41:03.104Z,9.70
2022-09-09T02:43:36.500Z,10.00
2022-09-09T02:46:26.500Z,9.80
2022-09-09T02:49:07.072Z,9.10
2022-09-09T02:51:45.963Z,9.00
2022-09-09T02:54:29.665Z,8.60
2022-09-09T02:57:07.902Z,9.60
2022-09-09T02:59:39.438Z,10.60
2022-09-09T03:02:08.173Z,10.10
2022-09-09T03:04:36.838Z,9.90
2022-09-09T03:07:06.348Z,10.40
2022-09-09T03:09:34.686Z,10.40
2022-09-09T03:12:05.491Z,10.10
2022-09-09T03:14:34.778Z,10.90
2022-09-09T03:17:03.676Z,11.20
2022-09-09T03:19:37.369Z,11.80
2022-09-09T03:22:06.127Z,11.40
2022-09-09T03:24:35.321Z,11.90
2022-09-09T03:27:05.223Z,11.60
2022-09-09T03:29:34.169Z,12.60
2022-09-09T03:32:04.009Z,11.50
2022-09-09T03:34:32.535Z,12.30
2022-09-09T03:37:01.157Z,12.30
2022-09-09T03:39:30.312Z,11.60
2022-09-09T03:42:00.894Z,11.80
2022-09-09T03:44:29.539Z,12.70
2022-09-09T03:46:58.604Z,12.70
2022-09-09T03:49:29.803Z,12.20
2022-09-09T03:51:58.698Z,12.80
2022-09-09T03:54:27.054Z,11.80
2022-09-09T03:56:56.182Z,12.40
2022-09-09T03:59:24.772Z,12.60
2022-09-09T04:01:53.263Z,12.00
2022-09-09T04:04:21.969Z,12.20
2022-09-09T04:06:52.055Z,12.90
2022-09-09T04:09:20.700Z,12.80
2022-09-09T04:11:50.661Z,12.40
2022-09-09T04:14:18.954Z,12.40
2022-09-09T04:16:47.293Z,12.20
2022-09-09T04:19:15.792Z,13.00
2022-09-09T04:21:44.592Z,12.90
2022-09-09T04:24:13.654Z,13.60
2022-09-09T04:26:42.887Z,13.30
2022-09-09T04:29:11.775Z,13.10
2022-09-09T04:31:43.220Z,14.00
2022-09-09T04:34:11.973Z,13.90
2022-09-09T04:36:41.761Z,13.20
2022-09-09T04:39:10.857Z,13.10
2022-09-09T04:41:40.693Z,14.00
2022-09-09T04:46:39.871Z,12.60
2022-09-09T04:49:13.130Z,13.80
2022-09-09T04:51:44.625Z,14.20
2022-09-09T04:54:13.008Z,14.00
2022-09-09T04:56:43.787Z,14.70
2022-09-09T05:02:22.402Z,14.10
2022-09-09T05:04:52.493Z,14.30
2022-09-09T05:07:20.933Z,13.50
2022-09-09T05:09:50.569Z,14.20
2022-09-09T05:12:18.927Z,14.80
2022-09-09T05:14:53.776Z,14.40
2022-09-09T05:17:22.297Z,14.60
2022-09-09T05:19:50.696Z,13.60
2022-09-09T05:22:22.603Z,14.00
2022-09-09T05:24:52.192Z,13.90
2022-09-09T05:27:20.883Z,13.80
2022-09-09T05:29:49.622Z,13.80
2022-09-09T05:32:18.401Z,13.00
2022-09-09T05:34:49.120Z,13.40
2022-09-09T05:37:18.033Z,14.00
2022-09-09T05:39:46.396Z,13.70
2022-09-09T05:42:15.009Z,14.70
2022-09-09T05:44:45.933Z,14.00
2022-09-09T05:47:14.318Z,14.90
2022-09-09T05:49:43.474Z,14.70
2022-09-09T05:52:12.338Z,14.30
2022-09-09T05:54:42.822Z,14.80
2022-09-09T05:57:11.476Z,15.10
2022-09-09T05:59:40.116Z,16.20
2022-09-09T06:02:10.874Z,16.40
2022-09-09T06:04:40.149Z,16.20
2022-09-09T06:07:09.525Z,16.20
2022-09-09T06:09:38.029Z,15.60
2022-09-09T06:12:07.110Z,16.90
2022-09-09T06:14:36.751Z,16.10
2022-09-09T06:17:06.437Z,16.20
2022-09-09T06:19:34.981Z,16.40
2022-09-09T06:22:03.573Z,16.40
2022-09-09T06:24:34.132Z,14.90
2022-09-09T06:27:03.770Z,15.30
2022-09-09T06:29:35.087Z,16.30
2022-09-09T06:32:04.871Z,16.80
2022-09-09T06:34:33.494Z,17.90
2022-09-09T06:37:02.116Z,18.80
2022-09-09T06:39:43.711Z,21.40
2022-09-09T06:42:18.970Z,21.50
2022-09-09T06:45:20.111Z,23.40
2022-09-09T06:48:33.880Z,20.70
2022-09-09T06:51:08.568Z,20.90
2022-09-09T06:53:39.882Z,19.80
2022-09-09T06:56:14.802Z,19.70
2022-09-09T06:58:47.196Z,20.00
2022-09-09T07:01:26.044Z,20.60
2022-09-09T07:03:56.212Z,19.40
2022-09-09T07:09:00.251Z,20.20
2022-09-09T07:11:31.792Z,20.70
2022-09-09T07:14:01.385Z,19.50
2022-09-09T07:16:32.463Z,18.20
